Time;durP1;ratioP1;P1;durP2;ratioP2;P2;SDS_P1;SDS_P2;PMS_P1;PMS_P2;Temp;Humidity;BMP_temperature;BMP_pressure;BME280_temperature;BME280_humidity;BME280_pressure;Samples;Min_cycle;Max_cycle;Signal;HPM_P1;HPM_P2
2022/06/15 00:00:40;;;;;;;7.70;4.60;;;14.30;99.90;;;;;;5003251;28;20030;-75
2022/06/15 00:03:07;;;;;;;9.93;5.60;;;14.30;99.90;;;;;;5003645;28;20045;-76
2022/06/15 00:05:32;;;;;;;10.65;5.15;;;14.20;99.90;;;;;;5006323;28;20441;-76
2022/06/15 00:07:58;;;;;;;7.45;4.53;;;14.40;99.90;;;;;;4998409;28;20048;-76
2022/06/15 00:10:23;;;;;;;9.02;4.97;;;14.30;99.90;;;;;;4986527;28;20068;-76
2022/06/15 00:12:49;;;;;;;12.20;5.82;;;14.20;99.90;;;;;;5029337;28;20537;-76
2022/06/15 00:15:15;;;;;;;9.57;4.95;;;14.60;99.90;;;;;;5012915;28;20048;-76
2022/06/15 00:17:41;;;;;;;10.65;5.35;;;14.30;99.90;;;;;;4992745;28;20037;-76
2022/06/15 00:20:08;;;;;;;9.43;4.68;;;14.20;99.90;;;;;;5006660;28;20409;-76
2022/06/15 00:22:34;;;;;;;9.45;5.00;;;14.20;99.90;;;;;;5004361;28;20052;-76
2022/06/15 00:25:00;;;;;;;8.88;4.75;;;14.70;99.90;;;;;;4983451;28;20069;-76
2022/06/15 00:27:25;;;;;;;14.20;5.70;;;14.10;99.90;;;;;;5008120;28;20045;-75
2022/06/15 00:29:51;;;;;;;9.02;5.25;;;14.10;99.90;;;;;;5017794;28;20029;-76
2022/06/15 00:32:17;;;;;;;8.05;5.53;;;14.10;99.90;;;;;;5007592;28;20042;-76
2022/06/15 00:34:43;;;;;;;10.57;5.03;;;14.10;99.90;;;;;;5008820;28;20184;-76
2022/06/15 00:37:08;;;;;;;8.40;5.20;;;14.10;99.90;;;;;;5022751;28;20117;-76
2022/06/15 00:39:34;;;;;;;7.68;4.75;;;14.10;99.90;;;;;;5006695;28;20052;-76
2022/06/15 00:42:01;;;;;;;7.18;4.82;;;14.10;99.90;;;;;;5010734;28;20088;-76
2022/06/15 00:44:31;;;;;;;9.80;5.55;;;14.30;99.90;;;;;;4997255;28;20052;-76
2022/06/15 00:47:14;;;;;;;9.45;5.47;;;14.10;99.90;;;;;;5014747;28;20117;-75
2022/06/15 00:50:01;;;;;;;8.43;5.18;;;14.00;99.90;;;;;;5005727;28;20037;-77
2022/06/15 00:52:37;;;;;;;7.60;4.65;;;14.00;99.90;;;;;;5021008;28;20046;-76
2022/06/15 00:55:06;;;;;;;9.27;5.30;;;14.00;99.90;;;;;;5006839;28;20037;-76
2022/06/15 00:57:32;;;;;;;8.23;5.20;;;14.00;99.90;;;;;;4997546;28;20042;-77
2022/06/15 01:00:00;;;;;;;12.68;4.95;;;14.00;99.90;;;;;;5027092;28;20038;-76
2022/06/15 01:02:27;;;;;;;10.07;5.05;;;14.00;99.90;;;;;;5003452;28;20056;-76
2022/06/15 01:05:03;;;;;;;12.45;5.20;;;13.90;99.90;;;;;;5028648;28;20088;-76
2022/06/15 01:07:34;;;;;;;9.05;4.93;;;13.90;99.90;;;;;;5001946;28;20041;-75
2022/06/15 01:10:25;;;;;;;8.07;4.90;;;13.90;99.90;;;;;;5007465;28;20071;-76
2022/06/15 01:13:15;;;;;;;9.93;4.90;;;13.90;99.90;;;;;;5010334;28;20288;-76
2022/06/15 01:15:47;;;;;;;9.60;5.03;;;13.90;99.90;;;;;;5001707;28;20489;-76
2022/06/15 01:18:47;;;;;;;9.65;4.95;;;13.80;99.90;;;;;;5010461;28;20045;-76
2022/06/15 01:21:36;;;;;;;10.38;5.30;;;13.80;99.90;;;;;;4982690;28;20048;-76
2022/06/15 01:24:16;;;;;;;10.32;5.05;;;13.80;99.90;;;;;;5008145;28;20083;-76
2022/06/15 01:27:03;;;;;;;8.55;5.07;;;13.80;99.90;;;;;;5000957;28;20103;-76
2022/06/15 01:29:43;;;;;;;9.85;5.20;;;13.80;99.90;;;;;;5006015;28;20481;-76
2022/06/15 01:32:34;;;;;;;8.20;5.18;;;13.80;99.90;;;;;;5003491;28;20041;-76
2022/06/15 01:35:25;;;;;;;10.50;5.50;;;13.70;99.90;;;;;;5023056;28;20064;-76
2022/06/15 01:37:54;;;;;;;11.32;5.43;;;13.70;99.90;;;;;;4982544;28;20096;-76
2022/06/15 01:40:50;;;;;;;8.65;5.10;;;13.70;99.90;;;;;;5024599;28;20101;-76
2022/06/15 01:43:21;;;;;;;10.20;5.00;;;13.70;99.90;;;;;;4970843;28;20061;-76
2022/06/15 01:45:48;;;;;;;9.50;5.57;;;13.70;99.90;;;;;;5013013;28;20045;-76
2022/06/15 01:48:15;;;;;;;8.90;5.43;;;13.80;99.90;;;;;;5005932;28;20057;-76
2022/06/15 01:50:48;;;;;;;9.98;5.45;;;13.90;99.90;;;;;;4995965;28;20049;-76
2022/06/15 01:53:36;;;;;;;9.82;5.28;;;14.00;99.90;;;;;;5006896;28;20129;-76
2022/06/15 01:56:11;;;;;;;10.50;5.53;;;13.60;99.90;;;;;;5011253;28;20059;-76
2022/06/15 01:58:40;;;;;;;12.00;5.80;;;13.60;99.90;;;;;;5014580;28;20038;-76
2022/06/15 02:01:17;;;;;;;9.43;5.38;;;13.60;99.90;;;;;;5010844;28;20042;-76
2022/06/15 02:03:51;;;;;;;9.23;5.50;;;13.60;99.90;;;;;;5008808;28;20042;-76
2022/06/15 02:06:19;;;;;;;9.25;5.45;;;13.50;99.90;;;;;;5005342;28;20066;-76
2022/06/15 02:09:31;;;;;;;8.15;5.15;;;13.20;99.90;;;;;;5030415;28;20040;-76
2022/06/15 02:12:00;;;;;;;9.07;5.55;;;13.60;99.90;;;;;;4948607;28;20570;-76
2022/06/15 02:14:27;;;;;;;9.30;5.40;;;14.20;99.90;;;;;;5016408;28;20049;-76
2022/06/15 02:17:02;;;;;;;10.13;6.32;;;13.50;99.90;;;;;;4992707;28;20090;-76
2022/06/15 02:19:36;;;;;;;10.40;5.22;;;13.50;99.90;;;;;;4985904;28;20060;-76
2022/06/15 02:22:09;;;;;;;9.68;5.50;;;14.00;99.90;;;;;;5013877;28;20052;-76
2022/06/15 02:24:38;;;;;;;10.25;5.60;;;13.40;99.90;;;;;;4998286;28;20038;-76
2022/06/15 02:27:07;;;;;;;9.43;5.93;;;13.40;99.90;;;;;;5014957;28;20037;-76
2022/06/15 02:29:37;;;;;;;10.55;5.75;;;13.80;99.90;;;;;;5029125;28;20504;-76
2022/06/15 02:32:10;;;;;;;10.98;5.80;;;13.60;99.90;;;;;;4999769;28;20038;-76
2022/06/15 02:34:36;;;;;;;8.70;5.68;;;13.40;99.90;;;;;;5012830;28;20383;-76
2022/06/15 02:37:03;;;;;;;12.68;6.18;;;13.30;99.90;;;;;;4989709;28;20041;-75
2022/06/15 02:39:29;;;;;;;7.75;5.95;;;13.40;99.90;;;;;;4998889;28;20049;-75
2022/06/15 02:42:00;;;;;;;11.27;5.57;;;13.50;99.90;;;;;;5010796;28;20120;-75
2022/06/15 02:44:28;;;;;;;9.75;5.85;;;13.30;99.90;;;;;;5004799;28;20069;-76
2022/06/15 02:46:56;;;;;;;10.02;6.00;;;13.30;99.90;;;;;;5015376;28;20048;-76
2022/06/15 02:49:22;;;;;;;8.05;5.65;;;13.50;99.90;;;;;;4999912;28;20055;-76
2022/06/15 02:51:53;;;;;;;12.52;6.50;;;13.30;99.90;;;;;;5007433;28;20076;-76
2022/06/15 02:54:38;;;;;;;10.73;6.07;;;13.20;99.90;;;;;;4993484;28;20049;-76
2022/06/15 02:57:04;;;;;;;13.05;6.10;;;13.20;99.90;;;;;;5006876;28;20091;-76
2022/06/15 02:59:30;;;;;;;12.02;6.55;;;13.20;99.90;;;;;;5033746;28;20037;-76
2022/06/15 03:01:57;;;;;;;11.43;6.45;;;14.10;99.90;;;;;;4992369;28;20045;-76
2022/06/15 03:04:23;;;;;;;10.50;6.68;;;13.30;99.90;;;;;;5009211;28;20049;-75
2022/06/15 03:06:49;;;;;;;9.73;5.70;;;13.20;99.90;;;;;;5029156;28;20030;-76
2022/06/15 03:09:14;;;;;;;9.02;6.18;;;13.20;99.90;;;;;;5005280;28;20509;-75
2022/06/15 03:11:40;;;;;;;16.48;6.68;;;13.10;99.90;;;;;;5012828;28;20103;-75
2022/06/15 03:14:08;;;;;;;10.15;6.40;;;13.10;99.90;;;;;;5002409;28;20029;-76
2022/06/15 03:16:35;;;;;;;11.85;6.47;;;13.20;99.90;;;;;;5007353;28;20053;-76
2022/06/15 03:19:01;;;;;;;11.50;6.35;;;13.10;99.90;;;;;;5013296;28;20055;-76
2022/06/15 03:21:27;;;;;;;9.48;6.35;;;13.10;99.90;;;;;;5011795;28;20510;-76
2022/06/15 03:23:53;;;;;;;9.57;6.30;;;13.10;99.90;;;;;;5015285;28;20056;-76
2022/06/15 03:26:19;;;;;;;9.27;6.38;;;13.40;99.90;;;;;;5015293;28;20379;-76
2022/06/15 03:28:45;;;;;;;12.80;6.47;;;13.90;99.90;;;;;;4992349;28;20042;-76
2022/06/15 03:31:11;;;;;;;11.85;6.60;;;13.00;99.90;;;;;;5005868;28;20080;-76
2022/06/15 03:33:37;;;;;;;12.85;6.57;;;13.00;99.90;;;;;;4999282;28;20508;-76
2022/06/15 03:36:07;;;;;;;11.30;6.35;;;13.50;99.90;;;;;;5003235;28;20173;-76
2022/06/15 03:38:32;;;;;;;10.02;6.43;;;13.00;99.90;;;;;;5031630;28;20501;-76
2022/06/15 03:40:59;;;;;;;12.15;6.65;;;13.30;99.90;;;;;;4999027;28;20049;-76
2022/06/15 03:43:24;;;;;;;9.52;6.25;;;13.00;99.90;;;;;;4997114;28;20049;-76
2022/06/15 03:45:50;;;;;;;10.30;7.47;;;13.00;99.90;;;;;;4991738;28;20045;-76
2022/06/15 03:48:16;;;;;;;11.43;6.78;;;13.00;99.90;;;;;;5011167;28;20044;-76
2022/06/15 03:50:43;;;;;;;12.82;7.05;;;13.00;99.90;;;;;;4990524;28;20123;-76
2022/06/15 03:53:10;;;;;;;12.20;6.45;;;13.50;99.90;;;;;;5015219;28;20045;-76
2022/06/15 03:55:36;;;;;;;10.50;6.65;;;13.00;99.90;;;;;;4985638;28;20052;-76
2022/06/15 03:58:02;;;;;;;11.45;6.88;;;13.40;99.90;;;;;;5005129;28;20037;-76
2022/06/15 04:00:30;;;;;;;10.13;6.40;;;12.90;99.90;;;;;;4996667;28;20045;-76
2022/06/15 04:02:56;;;;;;;13.57;6.68;;;13.20;99.90;;;;;;5004553;28;20041;-78
2022/06/15 04:05:32;;;;;;;11.95;6.60;;;12.90;99.90;;;;;;5003503;28;20052;-77
2022/06/15 04:10:41;;;;;;;13.50;6.90;;;13.20;99.90;;;;;;5002972;28;20038;-77
2022/06/15 04:13:07;;;;;;;10.13;6.43;;;13.60;99.90;;;;;;5004059;28;20049;-77
2022/06/15 04:15:33;;;;;;;12.73;6.95;;;13.00;99.90;;;;;;5027817;28;20037;-77
2022/06/15 04:17:59;;;;;;;10.35;6.50;;;13.50;99.90;;;;;;5010372;28;20037;-78
2022/06/15 04:20:33;;;;;;;12.05;6.28;;;13.30;99.90;;;;;;4993598;28;20041;-77
2022/06/15 04:23:02;;;;;;;10.73;7.03;;;12.90;99.90;;;;;;5003902;28;20494;-77
2022/06/15 04:25:33;;;;;;;10.48;6.65;;;13.60;99.90;;;;;;4998707;28;20104;-77
2022/06/15 04:27:58;;;;;;;13.75;7.05;;;12.90;99.90;;;;;;5000779;28;20045;-77
2022/06/15 04:30:26;;;;;;;12.68;7.15;;;12.90;99.90;;;;;;5000685;28;20096;-78
2022/06/15 04:32:52;;;;;;;14.90;6.90;;;13.00;99.90;;;;;;4995896;28;20092;-77
2022/06/15 04:35:18;;;;;;;11.75;6.80;;;13.10;99.90;;;;;;5002196;28;20041;-77
2022/06/15 04:37:44;;;;;;;12.00;6.25;;;12.90;99.90;;;;;;5031923;28;20033;-77
2022/06/15 04:40:12;;;;;;;12.82;6.47;;;13.60;99.90;;;;;;5003984;28;20037;-77
2022/06/15 04:42:39;;;;;;;9.90;6.63;;;13.10;99.90;;;;;;5002869;28;20042;-77
2022/06/15 04:45:06;;;;;;;9.82;6.57;;;13.00;99.90;;;;;;4990241;28;20046;-77
2022/06/15 04:47:31;;;;;;;13.20;7.15;;;13.00;99.90;;;;;;4997127;28;20038;-77
2022/06/15 04:49:59;;;;;;;17.02;7.65;;;13.00;99.90;;;;;;5008221;28;20083;-77
2022/06/15 04:52:26;;;;;;;10.05;6.72;;;13.00;99.90;;;;;;4995236;28;20132;-77
2022/06/15 04:54:52;;;;;;;11.90;7.13;;;13.00;99.90;;;;;;5014427;28;20116;-77
2022/06/15 04:57:17;;;;;;;13.05;7.03;;;13.90;99.90;;;;;;5006196;28;20124;-77
2022/06/15 04:59:43;;;;;;;10.52;6.68;;;13.00;99.90;;;;;;4997545;28;20066;-77
2022/06/15 05:02:10;;;;;;;13.10;6.82;;;13.10;99.90;;;;;;5000584;28;20041;-78
2022/06/15 05:04:36;;;;;;;12.60;7.45;;;13.80;99.90;;;;;;5006207;28;20108;-78
2022/06/15 05:07:02;;;;;;;12.73;6.55;;;13.40;99.90;;;;;;4997186;28;20033;-77
2022/06/15 05:09:28;;;;;;;11.25;7.32;;;13.10;99.90;;;;;;4994895;28;20069;-80
2022/06/15 05:11:54;;;;;;;12.90;7.47;;;13.10;99.90;;;;;;4997202;28;20502;-76
2022/06/15 05:14:21;;;;;;;14.35;7.22;;;13.20;99.90;;;;;;5002018;28;20041;-78
2022/06/15 05:16:47;;;;;;;11.15;6.65;;;13.70;99.90;;;;;;4991108;28;20044;-78
2022/06/15 05:19:13;;;;;;;10.00;6.70;;;13.30;99.90;;;;;;5004889;28;20041;-78
2022/06/15 05:21:41;;;;;;;11.38;7.10;;;13.20;99.90;;;;;;4996680;28;20080;-78
2022/06/15 05:24:07;;;;;;;12.30;7.20;;;13.50;99.90;;;;;;5011788;28;20124;-78
2022/06/15 05:26:35;;;;;;;10.80;6.68;;;13.20;99.90;;;;;;5006138;28;20387;-78
2022/06/15 05:29:01;;;;;;;11.40;6.53;;;13.30;99.90;;;;;;5024800;28;20497;-78
2022/06/15 05:31:27;;;;;;;17.63;7.35;;;13.30;99.90;;;;;;5031522;28;20053;-78
2022/06/15 05:33:56;;;;;;;11.35;6.93;;;13.70;99.90;;;;;;5026200;28;20050;-78
2022/06/15 05:36:30;;;;;;;9.95;6.60;;;13.30;99.90;;;;;;4993096;28;20049;-78
2022/06/15 05:38:56;;;;;;;17.08;7.20;;;13.40;99.90;;;;;;5028384;28;20516;-77
2022/06/15 05:41:22;;;;;;;10.35;6.95;;;13.40;99.90;;;;;;4991469;28;20438;-77
2022/06/15 05:43:51;;;;;;;12.40;7.20;;;13.80;99.90;;;;;;4992383;28;20125;-78
2022/06/15 05:46:26;;;;;;;14.93;7.43;;;13.50;99.90;;;;;;4991557;28;20121;-77
2022/06/15 05:48:53;;;;;;;14.32;6.85;;;13.50;99.90;;;;;;5030481;28;20087;-77
2022/06/15 05:51:18;;;;;;;13.00;6.82;;;13.50;99.90;;;;;;5009050;28;20068;-77
2022/06/15 05:53:44;;;;;;;15.60;7.28;;;13.70;99.90;;;;;;5027594;28;20490;-77
2022/06/15 05:56:10;;;;;;;12.00;7.07;;;13.60;99.90;;;;;;5016987;28;20038;-77
2022/06/15 05:58:35;;;;;;;15.30;7.38;;;13.80;99.90;;;;;;5007750;28;20052;-77
2022/06/15 06:01:09;;;;;;;13.30;7.95;;;13.80;99.90;;;;;;5027694;28;20129;-77
2022/06/15 06:03:35;;;;;;;12.65;6.88;;;13.70;99.90;;;;;;4994550;28;20498;-77
2022/06/15 06:06:01;;;;;;;16.23;6.93;;;14.00;99.90;;;;;;5029334;28;20076;-77
2022/06/15 06:08:27;;;;;;;12.40;7.22;;;13.70;99.90;;;;;;4989173;28;20045;-77
2022/06/15 06:10:53;;;;;;;11.30;6.53;;;13.80;99.90;;;;;;5013741;28;20048;-77
2022/06/15 06:13:21;;;;;;;11.90;6.93;;;13.80;99.90;;;;;;5028007;28;20041;-78
2022/06/15 06:15:46;;;;;;;11.23;6.85;;;13.80;99.90;;;;;;5013117;28;20041;-78
2022/06/15 06:18:12;;;;;;;12.85;6.95;;;13.90;99.90;;;;;;5028716;28;20083;-77
2022/06/15 06:20:39;;;;;;;11.35;6.78;;;13.90;99.90;;;;;;5025230;28;20116;-78
2022/06/15 06:23:05;;;;;;;11.80;7.00;;;14.00;99.90;;;;;;5028463;28;20472;-78
2022/06/15 06:25:30;;;;;;;10.93;6.43;;;14.00;99.90;;;;;;5030208;28;20068;-78
2022/06/15 06:27:56;;;;;;;10.93;6.47;;;13.90;99.90;;;;;;5004577;28;20042;-79
2022/06/15 06:30:22;;;;;;;11.63;6.53;;;14.00;99.90;;;;;;5012660;28;20046;-79
2022/06/15 06:32:50;;;;;;;11.80;6.43;;;14.10;99.90;;;;;;5030589;28;20042;-78
2022/06/15 06:35:16;;;;;;;10.45;6.22;;;14.10;99.90;;;;;;5001024;28;20131;-78
2022/06/15 06:37:44;;;;;;;13.90;6.30;;;14.20;99.90;;;;;;5012725;28;20037;-78
2022/06/15 06:40:13;;;;;;;12.38;6.38;;;14.30;99.90;;;;;;4981910;28;20402;-77
2022/06/15 06:42:39;;;;;;;13.38;6.07;;;14.20;99.90;;;;;;4988828;28;20041;-77
2022/06/15 06:45:05;;;;;;;10.52;6.25;;;14.30;99.90;;;;;;4992479;28;20508;-78
2022/06/15 06:47:30;;;;;;;12.18;6.18;;;14.30;99.90;;;;;;5011289;28;20436;-78
2022/06/15 06:49:56;;;;;;;11.55;6.10;;;14.40;99.90;;;;;;5029228;28;20121;-78
2022/06/15 06:52:22;;;;;;;10.80;5.93;;;14.40;99.90;;;;;;5013189;28;20405;-79
2022/06/15 06:54:48;;;;;;;10.10;6.10;;;14.40;99.90;;;;;;5004434;28;20042;-79
2022/06/15 06:57:14;;;;;;;10.65;6.13;;;14.50;99.90;;;;;;4986827;28;20046;-78
2022/06/15 06:59:40;;;;;;;11.73;5.47;;;14.60;99.90;;;;;;4996793;28;20042;-78
2022/06/15 07:02:06;;;;;;;9.73;5.65;;;14.60;99.90;;;;;;4998390;28;20041;-79
2022/06/15 07:04:32;;;;;;;9.52;6.03;;;14.70;99.90;;;;;;5014803;28;20041;-79
2022/06/15 07:06:58;;;;;;;10.85;6.30;;;14.70;99.90;;;;;;4992657;28;20025;-78
2022/06/15 07:09:26;;;;;;;13.05;6.03;;;14.70;99.90;;;;;;5012086;28;20052;-78
2022/06/15 07:11:51;;;;;;;9.90;6.05;;;14.80;99.90;;;;;;5027578;28;20444;-78
2022/06/15 07:14:17;;;;;;;11.98;5.80;;;15.00;99.90;;;;;;5032959;28;20037;-78
2022/06/15 07:16:43;;;;;;;14.75;6.63;;;15.20;99.90;;;;;;4995310;28;20573;-78
2022/06/15 07:19:09;;;;;;;11.70;6.20;;;15.00;99.90;;;;;;5005676;28;20045;-78
2022/06/15 07:21:35;;;;;;;14.05;5.63;;;15.00;99.90;;;;;;4992697;28;20116;-78
2022/06/15 07:24:01;;;;;;;9.65;5.50;;;15.10;99.90;;;;;;4999649;28;20133;-78
2022/06/15 07:26:34;;;;;;;10.45;5.00;;;15.10;99.90;;;;;;5014317;28;20041;-78
2022/06/15 07:29:01;;;;;;;11.70;5.90;;;15.20;99.90;;;;;;4984643;28;20056;-78
2022/06/15 07:31:30;;;;;;;13.00;5.18;;;15.20;99.90;;;;;;4993194;28;20379;-78
2022/06/15 07:33:57;;;;;;;10.45;5.07;;;15.30;99.90;;;;;;5021374;28;20041;-78
2022/06/15 07:36:23;;;;;;;8.63;4.72;;;15.30;99.90;;;;;;5030340;28;20471;-78
2022/06/15 07:38:50;;;;;;;9.75;4.57;;;15.40;99.90;;;;;;5015334;28;20067;-79
2022/06/15 07:41:16;;;;;;;10.60;4.93;;;15.60;99.90;;;;;;4996550;28;20053;-78
2022/06/15 07:43:42;;;;;;;11.85;4.55;;;15.50;99.90;;;;;;4995562;28;20042;-78
2022/06/15 07:46:08;;;;;;;9.20;4.18;;;15.60;99.90;;;;;;5011950;28;20043;-78
2022/06/15 07:51:38;;;;;;;11.27;3.95;;;15.70;99.90;;;;;;5032092;28;20076;-79
2022/06/15 07:54:08;;;;;;;9.40;4.25;;;15.80;99.90;;;;;;4989914;28;20034;-79
2022/06/15 07:56:34;;;;;;;8.35;4.03;;;15.90;99.90;;;;;;5004690;28;20594;-78
2022/06/15 07:59:00;;;;;;;11.13;4.15;;;16.00;99.90;;;;;;4983775;28;20041;-78
2022/06/15 08:01:27;;;;;;;10.18;3.70;;;16.10;99.90;;;;;;5014947;28;20337;-79
2022/06/15 08:03:54;;;;;;;8.18;3.67;;;16.10;99.90;;;;;;5014725;28;20501;-79
2022/06/15 08:06:22;;;;;;;7.82;3.15;;;16.30;99.90;;;;;;5029740;28;20042;-79
2022/06/15 08:08:47;;;;;;;9.45;3.47;;;16.30;99.90;;;;;;5007735;28;20046;-79
2022/06/15 08:11:14;;;;;;;7.70;3.00;;;16.40;99.90;;;;;;5026429;28;20140;-79
2022/06/15 08:13:40;;;;;;;10.45;3.58;;;16.40;99.90;;;;;;5009252;28;20490;-79
2022/06/15 08:16:06;;;;;;;6.65;3.10;;;16.50;99.90;;;;;;4982448;28;20046;-79
2022/06/15 08:18:34;;;;;;;7.95;3.10;;;16.70;99.90;;;;;;5024342;28;20037;-78
2022/06/15 08:21:08;;;;;;;5.75;2.72;;;16.90;99.90;;;;;;5014152;28;20052;-79
2022/06/15 08:23:37;;;;;;;9.13;2.83;;;17.30;99.90;;;;;;5020939;28;20046;-79
2022/06/15 08:26:09;;;;;;;4.78;2.45;;;17.60;99.90;;;;;;4996641;28;20064;-79
2022/06/15 08:28:38;;;;;;;6.57;2.63;;;17.90;99.90;;;;;;5032552;28;20048;-79
2022/06/15 08:31:04;;;;;;;6.72;2.40;;;18.20;99.90;;;;;;5003563;28;20124;-79
2022/06/15 08:33:30;;;;;;;5.70;2.47;;;18.50;99.90;;;;;;5013240;28;20124;-79
2022/06/15 08:35:55;;;;;;;10.43;2.65;;;18.80;99.90;;;;;;5014765;28;20029;-79
2022/06/15 08:38:24;;;;;;;5.03;2.20;;;18.70;99.90;;;;;;5030401;28;20098;-79
2022/06/15 08:41:10;;;;;;;6.32;2.10;;;18.70;99.90;;;;;;4991249;28;20061;-79
2022/06/15 08:44:10;;;;;;;9.02;2.15;;;18.60;99.90;;;;;;5031318;28;20029;-79
2022/06/15 08:47:05;;;;;;;7.28;2.17;;;18.50;99.90;;;;;;4932515;28;20475;-79
2022/06/15 08:50:01;;;;;;;4.40;2.28;;;18.60;99.90;;;;;;5007947;28;20041;-79
2022/06/15 08:52:43;;;;;;;5.97;2.08;;;19.20;99.90;;;;;;5007317;28;20049;-79
2022/06/15 08:55:11;;;;;;;5.03;1.98;;;19.40;99.90;;;;;;5013210;28;20077;-79
2022/06/15 08:58:01;;;;;;;5.55;2.10;;;19.80;99.90;;;;;;5023892;28;20045;-79
2022/06/15 09:00:34;;;;;;;5.85;2.30;;;20.20;99.30;;;;;;5014253;28;20038;-79
2022/06/15 09:03:13;;;;;;;5.55;2.05;;;20.60;99.90;;;;;;5030085;28;20025;-79
2022/06/15 09:06:09;;;;;;;6.55;2.30;;;20.90;98.20;;;;;;4992712;28;20049;-79
2022/06/15 09:09:13;;;;;;;5.47;1.92;;;21.30;97.60;;;;;;4996081;28;20084;-79
2022/06/15 09:11:47;;;;;;;5.85;1.90;;;21.60;96.20;;;;;;4972002;28;20057;-79
2022/06/15 09:14:22;;;;;;;4.63;1.65;;;21.90;96.10;;;;;;5012276;28;20125;-79
2022/06/15 09:16:50;;;;;;;4.38;2.03;;;21.90;94.40;;;;;;4996416;28;20405;-79
2022/06/15 09:19:31;;;;;;;4.10;1.80;;;21.70;95.50;;;;;;4996468;28;20141;-79
2022/06/15 09:22:16;;;;;;;5.00;1.90;;;21.70;94.40;;;;;;5006123;28;20450;-79
2022/06/15 09:24:58;;;;;;;5.50;1.70;;;21.80;93.30;;;;;;4999301;28;20052;-79
2022/06/15 09:27:40;;;;;;;3.13;1.50;;;22.00;93.00;;;;;;5013611;28;20398;-79
2022/06/15 09:30:19;;;;;;;3.53;1.70;;;22.20;93.50;;;;;;5012719;28;20490;-79
2022/06/15 09:33:06;;;;;;;5.13;2.05;;;22.40;92.90;;;;;;5014857;28;20033;-79
2022/06/15 09:35:46;;;;;;;3.35;1.80;;;22.60;91.70;;;;;;5015804;28;20399;-79
2022/06/15 09:38:14;;;;;;;3.97;1.60;;;22.90;91.90;;;;;;5014188;28;20034;-79
2022/06/15 09:40:45;;;;;;;6.03;1.77;;;23.10;91.60;;;;;;5019961;28;20487;-79
2022/06/15 09:43:14;;;;;;;4.57;1.40;;;23.30;90.50;;;;;;5008256;28;20427;-79
2022/06/15 09:46:22;;;;;;;5.22;1.85;;;23.50;90.00;;;;;;4997214;28;20092;-79
2022/06/15 09:48:50;;;;;;;8.35;2.30;;;23.60;82.80;;;;;;4991382;28;20564;-79
2022/06/15 09:51:33;;;;;;;6.38;1.98;;;23.70;84.30;;;;;;4987785;28;20077;-79
2022/06/15 09:54:20;;;;;;;4.07;1.85;;;23.50;81.60;;;;;;5011786;28;20041;-79
2022/06/15 09:56:47;;;;;;;5.82;1.83;;;23.40;83.70;;;;;;4985925;28;20034;-79
2022/06/15 09:59:16;;;;;;;4.78;1.73;;;23.50;84.30;;;;;;5011734;28;20432;-79
2022/06/15 10:01:45;;;;;;;4.03;1.65;;;23.70;83.50;;;;;;5025895;28;20041;-79
2022/06/15 10:04:27;;;;;;;5.47;2.00;;;23.80;83.70;;;;;;5022694;28;20030;-79
2022/06/15 10:07:08;;;;;;;4.53;1.80;;;24.10;80.70;;;;;;4983500;28;20113;-79
2022/06/15 10:09:39;;;;;;;4.70;1.67;;;24.20;80.20;;;;;;5006759;28;20044;-79
2022/06/15 10:15:18;;;;;;;2.97;1.83;;;24.50;74.70;;;;;;5008675;28;20050;-79
2022/06/15 10:17:49;;;;;;;3.13;2.10;;;24.50;77.20;;;;;;4993582;28;20038;-79
2022/06/15 10:20:25;;;;;;;5.97;2.05;;;24.50;74.80;;;;;;5028791;28;20034;-79
2022/06/15 10:22:54;;;;;;;3.47;1.90;;;24.60;73.60;;;;;;5027782;28;20178;-80
2022/06/15 10:25:21;;;;;;;4.35;1.85;;;24.50;74.20;;;;;;4994029;28;20043;-80
2022/06/15 10:27:47;;;;;;;4.35;1.77;;;24.60;74.60;;;;;;5012984;28;20045;-80
2022/06/15 10:30:12;;;;;;;4.03;1.70;;;24.80;74.00;;;;;;5002587;28;20033;-80
2022/06/15 10:32:59;;;;;;;4.60;2.03;;;25.10;73.10;;;;;;5013110;28;20053;-80
2022/06/15 10:35:27;;;;;;;3.10;1.70;;;25.20;69.30;;;;;;5011338;28;20049;-80
2022/06/15 10:38:09;;;;;;;4.40;1.90;;;25.30;71.00;;;;;;5029706;28;20457;-80
2022/06/15 10:40:48;;;;;;;4.15;1.60;;;25.40;67.40;;;;;;5023324;28;20038;-80
2022/06/15 10:43:14;;;;;;;3.17;1.98;;;25.50;68.80;;;;;;4989633;28;20513;-80
2022/06/15 10:46:02;;;;;;;5.15;2.35;;;25.60;68.80;;;;;;5000960;28;20045;-80
2022/06/15 10:48:33;;;;;;;5.63;1.88;;;25.70;67.00;;;;;;5013304;28;20052;-80
2022/06/15 10:51:08;;;;;;;4.13;1.65;;;25.60;65.20;;;;;;5000509;28;20033;-80
2022/06/15 10:53:47;;;;;;;4.05;1.60;;;25.70;64.90;;;;;;5012492;28;20045;-80
2022/06/15 11:02:28;;;;;;;4.88;1.88;;;26.00;64.00;;;;;;5013031;28;20050;-80
2022/06/15 11:05:06;;;;;;;3.97;1.77;;;26.00;64.40;;;;;;5030546;28;20131;-80
2022/06/15 11:07:54;;;;;;;3.28;1.70;;;26.20;64.50;;;;;;4994107;28;20043;-80
2022/06/15 11:11:00;;;;;;;9.02;2.50;;;26.30;64.40;;;;;;5015678;28;20055;-80
2022/06/15 11:13:39;;;;;;;4.55;1.75;;;26.30;61.30;;;;;;5030998;28;20041;-80
2022/06/15 11:19:12;;;;;;;3.58;1.90;;;26.30;61.50;;;;;;5014922;28;20045;-79
2022/06/15 11:21:59;;;;;;;4.30;1.65;;;26.30;63.50;;;;;;5012394;28;20037;-79
2022/06/15 11:24:32;;;;;;;5.03;2.00;;;26.40;63.10;;;;;;4991550;28;20073;-79
2022/06/15 11:27:24;;;;;;;3.65;1.80;;;26.50;64.40;;;;;;4991506;28;20048;-79
2022/06/15 11:30:11;;;;;;;5.90;2.00;;;26.50;63.40;;;;;;5000815;28;20045;-79
2022/06/15 11:32:52;;;;;;;2.65;1.77;;;26.50;62.90;;;;;;5010101;28;20041;-79
2022/06/15 11:35:39;;;;;;;5.63;1.90;;;26.50;62.60;;;;;;5007188;28;20632;-79
2022/06/15 11:38:31;;;;;;;5.10;1.88;;;26.50;62.60;;;;;;5008794;28;20045;-80
2022/06/15 11:41:13;;;;;;;4.30;1.75;;;26.50;62.80;;;;;;5023962;28;20038;-78
2022/06/15 11:43:44;;;;;;;4.65;2.40;;;26.60;61.80;;;;;;5032737;28;20037;-79
2022/06/15 11:46:35;;;;;;;4.95;1.70;;;26.60;62.10;;;;;;4991899;28;20129;-79
2022/06/15 11:49:13;;;;;;;2.65;1.58;;;26.60;60.30;;;;;;5021485;28;20039;-79
2022/06/15 11:52:00;;;;;;;3.22;1.80;;;26.50;61.80;;;;;;5000319;28;20533;-78
2022/06/15 11:54:50;;;;;;;4.35;1.73;;;26.60;60.50;;;;;;5010953;28;20045;-79
2022/06/15 11:57:44;;;;;;;4.28;1.92;;;26.60;60.20;;;;;;4993303;28;20037;-78
2022/06/15 12:00:22;;;;;;;4.38;1.77;;;26.60;60.40;;;;;;5025735;28;20094;-80
2022/06/15 12:03:07;;;;;;;3.90;1.95;;;26.60;60.40;;;;;;5028070;28;20033;-79
2022/06/15 12:05:44;;;;;;;3.53;1.92;;;26.70;59.50;;;;;;5010486;28;20040;-79
2022/06/15 12:08:43;;;;;;;3.65;1.90;;;26.80;60.30;;;;;;5011283;28;20033;-78
2022/06/15 12:14:36;;;;;;;;;;;26.80;60.10;;;;;;4988288;28;20056;-78
2022/06/15 12:17:14;;;;;;;4.80;1.80;;;26.90;60.10;;;;;;5025868;28;20012;-78
2022/06/15 12:20:09;;;;;;;6.13;1.90;;;27.00;60.10;;;;;;5009918;28;20337;-79
2022/06/15 12:22:52;;;;;;;4.32;1.90;;;27.00;59.40;;;;;;4986592;28;20045;-79
2022/06/15 12:25:34;;;;;;;4.22;1.80;;;27.00;59.00;;;;;;5007669;28;20046;-79
2022/06/15 12:28:23;;;;;;;7.50;2.40;;;26.90;59.00;;;;;;5025473;28;20030;-79
2022/06/15 12:30:56;;;;;;;3.20;1.75;;;27.00;58.50;;;;;;5003559;28;20121;-79
2022/06/15 12:34:07;;;;;;;4.05;1.92;;;27.00;59.00;;;;;;5003046;28;20490;-79
2022/06/15 12:36:47;;;;;;;4.65;1.88;;;27.10;58.50;;;;;;5004961;28;20053;-78
2022/06/15 12:39:31;;;;;;;5.05;1.88;;;27.00;58.70;;;;;;5010458;28;20068;-80
2022/06/15 12:42:10;;;;;;;4.35;1.67;;;27.00;58.10;;;;;;4993054;28;20073;-79
2022/06/15 12:45:27;;;;;;;5.53;1.70;;;27.00;58.40;;;;;;5009730;28;20038;-78
2022/06/15 12:47:57;;;;;;;5.43;1.83;;;27.00;57.50;;;;;;4925904;29;20112;-79
2022/06/15 12:50:36;;;;;;;6.75;2.17;;;27.00;59.00;;;;;;4935583;29;20158;-79
2022/06/15 12:53:08;;;;;;;3.13;1.67;;;27.20;58.40;;;;;;4990058;28;20499;-79
2022/06/15 12:55:43;;;;;;;3.00;1.60;;;27.20;58.30;;;;;;4983573;28;20037;-79
2022/06/15 12:58:57;;;;;;;4.00;1.67;;;27.30;58.30;;;;;;5012607;28;20536;-79
2022/06/15 13:01:31;;;;;;;3.60;1.60;;;27.30;57.60;;;;;;4941726;28;20044;-79
2022/06/15 13:04:14;;;;;;;3.80;1.70;;;27.10;58.30;;;;;;5030597;28;20049;-79
2022/06/15 13:06:42;;;;;;;4.88;1.90;;;27.20;58.50;;;;;;5029616;28;20493;-79
2022/06/15 13:09:19;;;;;;;2.72;1.58;;;27.30;57.90;;;;;;5028279;28;20041;-78
2022/06/15 13:11:51;;;;;;;4.47;2.00;;;27.40;57.80;;;;;;4993403;28;20068;-78
2022/06/15 13:14:21;;;;;;;3.70;1.75;;;27.30;57.40;;;;;;4996032;28;20065;-80
2022/06/15 13:17:11;;;;;;;3.83;1.80;;;27.40;57.10;;;;;;5022741;28;20045;-78
2022/06/15 13:19:42;;;;;;;4.65;1.85;;;27.40;56.80;;;;;;5006088;28;20520;-78
2022/06/15 13:22:10;;;;;;;2.55;1.63;;;27.40;56.80;;;;;;4990485;28;20041;-79
2022/06/15 13:24:54;;;;;;;4.82;1.60;;;27.40;56.70;;;;;;5030109;28;20064;-79
2022/06/15 13:27:37;;;;;;;3.17;1.75;;;27.50;56.80;;;;;;5023765;28;20041;-79
2022/06/15 13:30:24;;;;;;;4.65;1.92;;;27.60;57.40;;;;;;4994701;28;20037;-79
2022/06/15 13:33:02;;;;;;;4.45;1.80;;;27.60;57.30;;;;;;5012009;28;20087;-79